createdAt,value
2016-10-21T00:00:08.549Z,82.2
2016-10-21T00:05:08.496Z,82.1
2016-10-21T00:10:08.444Z,82.2
2016-10-21T00:15:08.392Z,82.2
2016-10-21T00:20:08.038Z,82.3
2016-10-21T00:25:07.982Z,82.2
2016-10-21T00:30:07.929Z,82.2
2016-10-21T00:35:08.193Z,82.01
2016-10-21T00:40:08.143Z,82.4
2016-10-21T00:45:08.079Z,82.2
2016-10-21T00:50:08.021Z,82.01
2016-10-21T00:55:07.972Z,82.3
2016-10-21T01:00:07.911Z,82.1
2016-10-21T01:05:07.555Z,82.26
2016-10-21T01:10:07.811Z,82.16
2016-10-21T01:15:07.749Z,81.87
2016-10-21T01:20:07.697Z,82.26
2016-10-21T01:25:07.639Z,81.78
2016-10-21T01:30:07.294Z,81.97
2016-10-21T01:35:07.529Z,82.07
2016-10-21T01:40:07.479Z,82.07
2016-10-21T01:45:07.424Z,81.78
2016-10-21T01:50:07.372Z,81.87
2016-10-21T01:55:07.349Z,82.26
2016-10-21T02:00:06.957Z,81.68
2016-10-21T02:05:07.203Z,81.68
2016-10-21T02:10:07.153Z,81.78
2016-10-21T02:15:06.793Z,81.78
2016-10-21T02:20:07.039Z,81.59
2016-10-21T02:25:06.986Z,81.49
2016-10-21T02:30:06.932Z,81.4
2016-10-21T02:35:06.873Z,81.2
2016-10-21T02:40:06.821Z,81.59
2016-10-21T02:45:06.768Z,81.59
2016-10-21T02:50:06.709Z,81.49
2016-10-21T02:55:06.658Z,81.59
2016-10-21T03:00:06.597Z,81.3
2016-10-21T03:05:06.552Z,81.3
2016-10-21T03:10:06.493Z,81.01
2016-10-21T03:15:06.133Z,80.87
2016-10-21T03:20:06.079Z,80.91
2016-10-21T03:25:06.327Z,80.91
2016-10-21T03:30:05.969Z,81.01
2016-10-21T03:35:06.219Z,81.01
2016-10-21T03:40:06.163Z,80.97
2016-10-21T03:45:06.103Z,81.1
2016-10-21T03:50:06.052Z,80.63
2016-10-21T03:55:05.993Z,81.01
2016-10-21T04:00:05.939Z,80.91
2016-10-21T04:05:05.877Z,81.1
2016-10-21T04:10:05.829Z,80.73
2016-10-21T04:15:05.465Z,80.2
2016-10-21T04:20:05.730Z,80.78
2016-10-21T04:25:05.666Z,80.58
2016-10-21T04:30:05.598Z,80.97
2016-10-21T04:35:05.238Z,80.68
2016-10-21T04:40:05.480Z,80.87
2016-10-21T04:45:05.427Z,80.87
2016-10-21T04:50:05.372Z,81.26
2016-10-21T04:55:05.319Z,80.58
2016-10-21T05:00:05.260Z,80.78
2016-10-21T05:05:04.896Z,80.97
2016-10-21T05:10:04.860Z,80.97
2016-10-21T05:15:05.092Z,81.74
2016-10-21T05:20:05.030Z,81.45
2016-10-21T05:25:04.973Z,81.45
2016-10-21T05:30:04.610Z,81.45
2016-10-21T05:35:04.875Z,81.74
2016-10-21T05:40:04.494Z,81.45
2016-10-21T05:45:04.438Z,81.54
2016-10-21T05:50:04.692Z,81.35
2016-10-21T05:55:04.632Z,80.58
2016-10-21T06:00:04.576Z,80.78
2016-10-21T06:05:04.294Z,80.91
2016-10-21T06:10:04.156Z,80.47
2016-10-21T06:15:04.408Z,80.19
2016-10-21T06:20:04.353Z,80.28
2016-10-21T06:25:04.298Z,80.28
2016-10-21T06:30:04.246Z,79.71
2016-10-21T06:35:04.186Z,79.9
2016-10-21T06:40:04.131Z,79.71
2016-10-21T06:45:03.787Z,79.61
2016-10-21T06:50:04.025Z,79.9
2016-10-21T06:55:03.975Z,79.71
2016-10-21T07:00:03.919Z,79.61
2016-10-21T07:05:03.870Z,79.32
2016-10-21T07:10:03.815Z,79.32
2016-10-21T07:15:03.761Z,79.42
2016-10-21T07:20:03.704Z,79.61
2016-10-21T07:25:03.653Z,79.52
2016-10-21T07:30:03.598Z,79.61
2016-10-21T07:35:03.544Z,79.32
2016-10-21T07:40:03.496Z,79.71
2016-10-21T07:45:03.132Z,79.9
2016-10-21T07:50:03.378Z,79.42
2016-10-21T07:55:03.326Z,79.8
2016-10-21T08:00:03.271Z,79.8
2016-10-21T08:05:02.912Z,79.8
2016-10-21T08:10:03.163Z,79.71
2016-10-21T08:15:03.107Z,79.9
2016-10-21T08:20:02.756Z,80.09
2016-10-21T08:25:02.997Z,80.19
2016-10-21T08:30:02.952Z,80.66
2016-10-21T08:35:02.898Z,80.76
2016-10-21T08:40:02.845Z,80.76
2016-10-21T08:45:02.804Z,80.96
2016-10-21T08:50:02.738Z,80.76
2016-10-21T08:55:02.686Z,80.28
2016-10-21T09:00:02.634Z,80.38
2016-10-21T09:05:02.275Z,80.47
2016-10-21T09:10:02.230Z,81.24
2016-10-21T09:15:02.478Z,81.05
2016-10-21T09:20:02.448Z,81.34
2016-10-21T09:25:02.377Z,81.05
2016-10-21T09:30:02.362Z,81.43
2016-10-21T09:35:02.269Z,81.05
2016-10-21T09:40:02.215Z,80.96
2016-10-21T09:45:02.171Z,81.05
2016-10-21T09:50:02.113Z,81.05
2016-10-21T09:55:02.062Z,81.24
2016-10-21T10:00:02.011Z,81.15
2016-10-21T10:05:01.653Z,81.05
2016-10-21T10:10:01.601Z,80.96
2016-10-21T10:15:01.541Z,80.76
2016-10-21T10:20:01.802Z,80.96
2016-10-21T10:25:01.435Z,81.15
2016-10-21T10:30:01.378Z,81.05
2016-10-21T10:35:01.637Z,80.76
2016-10-21T10:40:01.269Z,80.66
2016-10-21T10:45:01.524Z,80.96
2016-10-21T10:50:01.463Z,81.05
2016-10-21T10:55:01.104Z,81.24
2016-10-21T11:00:01.362Z,81.24
2016-10-21T11:05:01.297Z,81.76
2016-10-21T11:10:00.936Z,81.48
2016-10-21T11:15:01.190Z,81.38
2016-10-21T11:20:01.142Z,81.76
2016-10-21T11:25:01.084Z,82.24
2016-10-21T11:30:00.730Z,82.24
2016-10-21T11:35:00.686Z,82.24
2016-10-21T11:40:00.932Z,82.92
2016-10-21T11:45:00.902Z,82.73
2016-10-21T11:50:00.528Z,83.3
2016-10-21T11:55:00.785Z,83.49
2016-10-21T12:00:00.730Z,83.11
2016-10-21T12:05:00.684Z,83.49
2016-10-21T12:10:00.629Z,82.92
2016-10-21T12:15:00.581Z,83.4
2016-10-21T12:20:00.231Z,83.87
2016-10-21T12:25:00.177Z,83.4
2016-10-21T12:30:00.426Z,83.59
2016-10-21T12:35:00.070Z,83.3
2016-10-21T12:40:00.328Z,83.11
2016-10-21T12:44:59.974Z,83.16
2016-10-21T12:50:00.224Z,83.26
2016-10-21T12:55:00.172Z,83.84
2016-10-21T13:00:00.122Z,83.16
2016-10-21T13:05:00.070Z,83.36
2016-10-21T13:10:00.016Z,83.16
2016-10-21T13:14:59.971Z,83.93
2016-10-21T13:19:59.914Z,83.36
2016-10-21T13:24:59.860Z,83.97
2016-10-21T13:29:59.507Z,83.74
2016-10-21T13:34:59.762Z,83.93
2016-10-21T13:39:59.714Z,83.84
2016-10-21T13:44:59.658Z,83.64
2016-10-21T13:49:59.309Z,83.74
2016-10-21T13:54:59.555Z,83.49
2016-10-21T13:59:59.506Z,83.78
2016-10-21T14:04:59.451Z,84.17
2016-10-21T14:09:59.395Z,84.17
2016-10-21T14:14:59.351Z,84.17
2016-10-21T14:19:59.292Z,84.07
2016-10-21T14:24:59.248Z,83.97
2016-10-21T14:29:58.896Z,84.55
2016-10-21T14:34:59.149Z,84.45
2016-10-21T14:39:58.794Z,83.97
2016-10-21T14:44:59.045Z,84.17
2016-10-21T14:49:58.999Z,84.17
2016-10-21T14:54:58.947Z,84.12
2016-10-21T14:59:58.897Z,84.6
2016-10-21T15:04:58.845Z,84.55
2016-10-21T15:09:58.797Z,84.8
2016-10-21T15:14:58.778Z,84.6
2016-10-21T15:19:58.692Z,84.8
2016-10-21T15:24:58.643Z,84.6
2016-10-21T15:29:58.591Z,84.55
2016-10-21T15:34:58.540Z,84.7
2016-10-21T15:39:58.490Z,84.7
2016-10-21T15:44:58.441Z,85.18
2016-10-21T15:49:58.383Z,85.32
2016-10-21T15:54:58.341Z,86.47
2016-10-21T15:59:58.282Z,87.24
2016-10-21T16:04:58.235Z,86.32
2016-10-21T16:09:58.176Z,85.94
2016-10-21T16:14:58.130Z,86.9
2016-10-21T16:19:58.095Z,87.86
2016-10-21T16:24:58.032Z,86.52
2016-10-21T16:29:57.983Z,86.13
2016-10-21T16:34:57.928Z,86.13
2016-10-21T16:39:57.878Z,86.32
2016-10-21T16:44:57.824Z,86.32
2016-10-21T16:49:57.774Z,86.32
2016-10-21T16:54:57.422Z,86.52
2016-10-21T16:59:57.675Z,85.36
2016-10-21T17:04:57.320Z,85.17
2016-10-21T17:09:57.264Z,85.46
2016-10-21T17:14:57.526Z,85.36
2016-10-21T17:19:57.163Z,85.46
2016-10-21T17:24:57.422Z,85.17
2016-10-21T17:29:57.375Z,86.22
2016-10-21T17:34:57.344Z,86.8
2016-10-21T17:39:57.286Z,86.13
2016-10-21T17:44:57.231Z,85.17
2016-10-21T17:49:57.179Z,85.75
2016-10-21T17:54:56.827Z,85.46
2016-10-21T17:59:56.780Z,84.98
2016-10-21T18:04:56.734Z,84.59
2016-10-21T18:09:56.997Z,85.17
2016-10-21T18:14:56.645Z,86.42
2016-10-21T18:19:56.595Z,84.78
2016-10-21T18:24:56.861Z,85.31
2016-10-21T18:29:56.819Z,84.63
2016-10-21T18:34:56.778Z,84.25
2016-10-21T18:39:56.726Z,84.16
2016-10-21T18:44:56.685Z,83.77
2016-10-21T18:49:56.634Z,84.54
2016-10-21T18:54:56.591Z,83.77
2016-10-21T18:59:56.238Z,84.06
2016-10-21T19:04:56.200Z,83.96
2016-10-21T19:09:56.456Z,84.54
2016-10-21T19:14:56.100Z,84.25
2016-10-21T19:19:56.355Z,84.83
2016-10-21T19:24:56.309Z,85.21
2016-10-21T19:29:56.255Z,85.6
2016-10-21T19:34:55.911Z,84.83
2016-10-21T19:39:56.175Z,84.63
2016-10-21T19:44:56.124Z,84.54
2016-10-21T19:49:56.076Z,84.63
2016-10-21T19:54:56.023Z,84.34
2016-10-21T19:59:55.978Z,83.96
2016-10-21T20:04:55.620Z,83.86
2016-10-21T20:09:55.871Z,84.54
2016-10-21T20:14:55.517Z,84.83
2016-10-21T20:19:55.774Z,84.92
2016-10-21T20:24:55.740Z,84.73
2016-10-21T20:29:55.675Z,85.21
2016-10-21T20:34:55.633Z,84.73
2016-10-21T20:39:55.583Z,84.73
2016-10-21T20:44:55.540Z,84.73
2016-10-21T20:49:55.491Z,84.54
2016-10-21T20:54:55.461Z,84.54
2016-10-21T20:59:55.105Z,84.25
2016-10-21T21:04:55.356Z,84.25
2016-10-21T21:09:55.305Z,83.67
2016-10-21T21:14:55.265Z,83.96
2016-10-21T21:19:55.218Z,83.58
2016-10-21T21:24:55.170Z,83.67
2016-10-21T21:29:55.122Z,83.96
2016-10-21T21:34:55.076Z,83.96
2016-10-21T21:39:55.026Z,83.77
2016-10-21T21:44:54.984Z,83.67
2016-10-21T21:49:54.933Z,83.96
2016-10-21T21:54:54.890Z,84.34
2016-10-21T21:59:54.838Z,84.34
2016-10-21T22:04:54.484Z,84.11
2016-10-21T22:09:54.741Z,84.4
2016-10-21T22:14:54.392Z,84.4
2016-10-21T22:19:54.680Z,84.5
2016-10-21T22:24:54.315Z,84.98
2016-10-21T22:29:54.246Z,84.88
2016-10-21T22:34:54.505Z,84.84
2016-10-21T22:39:54.148Z,84.74
2016-10-21T22:44:54.399Z,84.94
2016-10-21T22:49:54.353Z,85.03
2016-10-21T22:54:54.339Z,85.22
2016-10-21T22:59:54.253Z,85.03
2016-10-21T23:04:54.207Z,85.03
2016-10-21T23:09:54.158Z,85.41
2016-10-21T23:14:54.102Z,85.32
2016-10-21T23:19:54.052Z,85.03
2016-10-21T23:24:54.029Z,85.22
2016-10-21T23:29:53.954Z,85.22
2016-10-21T23:34:53.902Z,85.51
2016-10-21T23:39:53.845Z,85.28
2016-10-21T23:44:53.793Z,85.28
2016-10-21T23:49:53.744Z,85.18
2016-10-21T23:54:53.694Z,84.99
2016-10-21T23:59:53.335Z,85.18
